createdAt,value
2023-05-03T00:01:57.994Z,1.38
2023-05-03T00:04:26.547Z,1.50
2023-05-03T00:06:53.828Z,1.40
2023-05-03T00:09:21.123Z,1.50
2023-05-03T00:11:48.310Z,1.50
2023-05-03T00:14:15.516Z,1.33
2023-05-03T00:16:42.764Z,1.30
2023-05-03T00:19:15.050Z,1.15
2023-05-03T00:21:54.067Z,1.38
2023-05-03T00:24:21.281Z,1.30
2023-05-03T00:26:48.537Z,1.60
2023-05-03T00:29:15.819Z,1.10
2023-05-03T00:31:44.234Z,1.42
2023-05-03T00:34:11.443Z,1.48
2023-05-03T00:36:38.636Z,1.30
2023-05-03T00:39:07.155Z,1.23
2023-05-03T00:41:34.372Z,1.67
2023-05-03T00:44:01.602Z,1.42
2023-05-03T00:46:28.823Z,1.25
2023-05-03T00:48:56.007Z,1.27
2023-05-03T00:51:23.191Z,1.10
2023-05-03T00:53:51.394Z,1.30
2023-05-03T00:56:20.905Z,1.27
2023-05-03T00:58:48.098Z,1.35
2023-05-03T01:01:15.513Z,1.08
2023-05-03T01:03:42.928Z,1.17
2023-05-03T01:06:12.548Z,1.30
2023-05-03T01:08:43.608Z,1.23
2023-05-03T01:11:12.773Z,1.20
2023-05-03T01:13:44.740Z,1.23
2023-05-03T01:16:13.584Z,1.48
2023-05-03T01:18:43.973Z,1.17
2023-05-03T01:21:11.172Z,1.27
2023-05-03T01:23:41.225Z,1.02
2023-05-03T01:26:22.198Z,1.00
2023-05-03T01:28:49.394Z,1.30
2023-05-03T01:31:18.330Z,1.20
2023-05-03T01:33:46.212Z,1.20
2023-05-03T01:36:14.147Z,1.30
2023-05-03T01:38:41.355Z,1.20
2023-05-03T01:41:10.025Z,1.23
2023-05-03T01:43:38.574Z,1.30
2023-05-03T01:46:05.920Z,1.15
2023-05-03T01:48:33.176Z,1.20
2023-05-03T01:51:00.505Z,1.20
2023-05-03T01:53:27.712Z,1.35
2023-05-03T01:55:54.907Z,1.40
2023-05-03T01:58:22.117Z,1.38
2023-05-03T02:00:50.661Z,1.20
2023-05-03T02:03:19.008Z,1.10
2023-05-03T02:05:46.205Z,1.10
2023-05-03T02:08:13.395Z,1.20
2023-05-03T02:10:40.592Z,1.05
2023-05-03T02:13:07.763Z,1.10
2023-05-03T02:15:34.956Z,1.00
2023-05-03T02:18:03.752Z,1.40
2023-05-03T02:20:35.317Z,1.00
2023-05-03T02:23:02.530Z,1.40
2023-05-03T02:25:30.017Z,0.90
2023-05-03T02:27:57.232Z,1.40
2023-05-03T02:30:24.432Z,1.42
2023-05-03T02:32:51.610Z,1.17
2023-05-03T02:35:20.169Z,1.35
2023-05-03T02:37:47.354Z,0.95
2023-05-03T02:40:15.169Z,1.27
2023-05-03T02:42:42.372Z,1.15
2023-05-03T02:45:09.893Z,1.25
2023-05-03T02:47:37.117Z,1.20
2023-05-03T02:50:04.709Z,1.20
2023-05-03T02:52:33.393Z,1.08
2023-05-03T02:55:00.989Z,1.00
2023-05-03T02:57:28.170Z,1.20
2023-05-03T02:59:55.365Z,1.23
2023-05-03T03:02:22.903Z,1.23
2023-05-03T03:04:50.176Z,1.40
2023-05-03T03:07:17.474Z,1.00
2023-05-03T03:09:45.999Z,1.00
2023-05-03T03:12:13.169Z,1.05
2023-05-03T03:14:41.520Z,1.05
2023-05-03T03:17:09.106Z,1.08
2023-05-03T03:19:36.287Z,1.10
2023-05-03T03:22:03.465Z,1.10
2023-05-03T03:24:30.654Z,1.00
2023-05-03T03:26:59.144Z,1.20
2023-05-03T03:29:26.417Z,0.95
2023-05-03T03:31:53.636Z,0.95
2023-05-03T03:34:20.834Z,1.10
2023-05-03T03:36:48.345Z,1.00
2023-05-03T03:39:15.538Z,1.27
2023-05-03T03:41:42.767Z,0.90
2023-05-03T03:44:11.280Z,1.30
2023-05-03T03:46:38.517Z,1.05
2023-05-03T03:49:05.782Z,1.17
2023-05-03T03:51:32.960Z,1.10
2023-05-03T03:54:00.214Z,1.08
2023-05-03T03:56:27.449Z,1.10
2023-05-03T03:58:54.653Z,1.10
2023-05-03T04:01:23.454Z,1.20
2023-05-03T04:03:50.765Z,1.20
2023-05-03T04:06:18.050Z,1.20
2023-05-03T04:08:45.317Z,1.20
2023-05-03T04:11:13.162Z,1.17
2023-05-03T04:13:40.477Z,1.27
2023-05-03T04:16:07.865Z,1.10
2023-05-03T04:18:36.367Z,1.23
2023-05-03T04:21:03.559Z,1.13
2023-05-03T04:23:31.410Z,1.20
2023-05-03T04:25:58.601Z,1.13
2023-05-03T04:28:26.923Z,1.55
2023-05-03T04:30:54.175Z,1.23
2023-05-03T04:33:21.428Z,1.65
2023-05-03T04:35:51.831Z,1.30
2023-05-03T04:38:19.430Z,1.10
2023-05-03T04:40:46.705Z,1.30
2023-05-03T04:43:13.908Z,1.10
2023-05-03T04:45:41.674Z,1.25
2023-05-03T04:48:09.162Z,1.20
2023-05-03T04:50:36.419Z,1.02
2023-05-03T04:53:04.900Z,1.15
2023-05-03T04:55:32.205Z,1.10
2023-05-03T04:57:59.419Z,1.30
2023-05-03T05:00:26.648Z,1.00
2023-05-03T05:02:53.908Z,1.10
2023-05-03T05:05:21.197Z,1.50
2023-05-03T05:07:48.381Z,1.20
2023-05-03T05:10:17.055Z,1.40
2023-05-03T05:12:44.454Z,1.23
2023-05-03T05:15:12.184Z,1.30
2023-05-03T05:17:39.494Z,1.10
2023-05-03T05:20:08.228Z,1.38
2023-05-03T05:22:35.694Z,1.27
2023-05-03T05:25:03.261Z,1.50
2023-05-03T05:27:32.076Z,1.15
2023-05-03T05:29:59.261Z,1.60
2023-05-03T05:32:26.831Z,3.38
2023-05-03T05:34:55.393Z,3.10
2023-05-03T05:37:22.891Z,2.70
2023-05-03T05:39:50.083Z,2.70
2023-05-03T05:42:17.365Z,4.97
2023-05-03T05:44:46.050Z,8.80
2023-05-03T05:47:13.243Z,7.47
2023-05-03T05:49:40.467Z,7.13
2023-05-03T05:52:07.683Z,6.47
2023-05-03T05:54:34.897Z,4.97
2023-05-03T05:57:02.466Z,5.60
2023-05-03T05:59:31.349Z,4.55
2023-05-03T06:02:00.293Z,4.95
2023-05-03T06:04:28.547Z,4.50
2023-05-03T06:06:55.780Z,5.38
2023-05-03T06:09:24.808Z,4.72
2023-05-03T06:11:52.463Z,3.75
2023-05-03T06:14:20.588Z,4.00
2023-05-03T06:16:48.119Z,4.53
2023-05-03T06:19:16.667Z,4.97
2023-05-03T06:21:43.845Z,10.35
2023-05-03T06:24:11.031Z,5.82
2023-05-03T06:26:38.205Z,4.45
2023-05-03T06:29:05.427Z,4.68
2023-05-03T06:31:32.655Z,5.75
2023-05-03T06:33:59.867Z,6.18
2023-05-03T06:36:30.213Z,5.55
2023-05-03T06:38:57.398Z,5.38
2023-05-03T06:41:24.729Z,4.95
2023-05-03T06:43:51.916Z,4.60
2023-05-03T06:46:20.384Z,4.70
2023-05-03T06:48:47.950Z,4.35
2023-05-03T06:51:15.696Z,6.00
2023-05-03T06:53:46.086Z,5.78
2023-05-03T06:56:13.277Z,5.93
2023-05-03T06:58:40.464Z,5.45
2023-05-03T07:01:07.662Z,5.95
2023-05-03T07:03:35.009Z,7.60
2023-05-03T07:06:02.251Z,6.65
2023-05-03T07:08:29.459Z,6.13
2023-05-03T07:10:57.953Z,6.85
2023-05-03T07:13:25.153Z,5.75
2023-05-03T07:15:52.449Z,5.78
2023-05-03T07:18:19.691Z,5.82
2023-05-03T07:20:47.070Z,5.80
2023-05-03T07:23:14.252Z,5.80
2023-05-03T07:25:41.459Z,5.72
2023-05-03T07:28:09.958Z,5.97
2023-05-03T07:30:37.154Z,6.88
2023-05-03T07:33:04.475Z,5.55
2023-05-03T07:35:32.881Z,5.25
2023-05-03T07:38:00.104Z,5.00
2023-05-03T07:40:28.701Z,5.40
2023-05-03T07:42:55.931Z,4.78
2023-05-03T07:45:24.712Z,4.65
2023-05-03T07:47:52.523Z,4.78
2023-05-03T07:50:19.910Z,4.55
2023-05-03T07:52:51.030Z,4.32
2023-05-03T07:55:18.320Z,3.80
2023-05-03T07:57:45.503Z,3.80
2023-05-03T08:00:13.670Z,3.70
2023-05-03T08:02:42.399Z,3.67
2023-05-03T08:05:11.432Z,3.85
2023-05-03T08:07:38.750Z,3.70
2023-05-03T08:10:06.517Z,3.85
2023-05-03T08:12:33.833Z,4.00
2023-05-03T08:15:01.018Z,3.65
2023-05-03T08:17:28.371Z,3.55
2023-05-03T08:19:57.244Z,3.72
2023-05-03T08:22:26.725Z,3.53
2023-05-03T08:24:56.375Z,3.55
2023-05-03T08:27:24.652Z,3.15
2023-05-03T08:29:51.906Z,3.60
2023-05-03T08:32:20.655Z,3.25
2023-05-03T08:34:47.923Z,3.35
2023-05-03T08:37:16.491Z,3.80
2023-05-03T08:39:43.733Z,4.53
2023-05-03T08:42:10.928Z,4.47
2023-05-03T08:44:39.400Z,4.60
2023-05-03T08:47:07.345Z,3.90
2023-05-03T08:49:35.169Z,4.00
2023-05-03T08:52:02.508Z,5.95
2023-05-03T08:54:31.245Z,5.53
2023-05-03T08:56:58.432Z,5.40
2023-05-03T08:59:27.348Z,5.10
2023-05-03T09:01:55.220Z,5.53
2023-05-03T09:04:26.175Z,5.47
2023-05-03T09:06:54.343Z,4.88
2023-05-03T09:09:28.335Z,5.05
2023-05-03T09:11:57.706Z,5.40
2023-05-03T09:14:24.922Z,5.22
2023-05-03T09:16:52.137Z,3.92
2023-05-03T09:19:19.391Z,3.22
2023-05-03T09:21:47.396Z,4.47
2023-05-03T09:24:15.285Z,4.63
2023-05-03T09:26:42.680Z,6.78
2023-05-03T09:29:11.433Z,6.18
2023-05-03T09:31:38.705Z,5.57
2023-05-03T09:34:20.860Z,6.07
2023-05-03T09:36:48.046Z,5.55
2023-05-03T09:39:16.848Z,5.38
2023-05-03T09:41:44.036Z,5.07
2023-05-03T09:44:12.595Z,4.72
2023-05-03T09:46:39.831Z,4.20
2023-05-03T09:49:07.165Z,5.60
2023-05-03T09:51:34.365Z,5.10
2023-05-03T09:54:01.579Z,4.97
2023-05-03T09:56:28.805Z,3.88
2023-05-03T09:58:56.196Z,4.55
2023-05-03T10:01:25.260Z,4.60
2023-05-03T10:03:54.158Z,5.07
2023-05-03T10:06:25.443Z,4.35
2023-05-03T10:08:54.247Z,4.22
2023-05-03T10:11:21.927Z,4.57
2023-05-03T10:13:49.469Z,4.47
2023-05-03T10:16:18.247Z,3.78
2023-05-03T10:18:48.694Z,4.07
2023-05-03T10:21:17.405Z,3.67
2023-05-03T10:24:03.215Z,3.78
2023-05-03T10:26:30.478Z,3.28
2023-05-03T10:29:00.099Z,3.53
2023-05-03T10:31:47.639Z,3.67
2023-05-03T10:34:23.004Z,3.55
2023-05-03T10:36:52.494Z,3.25
2023-05-03T10:39:19.832Z,3.45
2023-05-03T10:41:48.121Z,3.15
2023-05-03T10:44:27.453Z,3.03
2023-05-03T10:46:54.794Z,3.53
2023-05-03T10:49:23.757Z,2.80
2023-05-03T10:51:51.590Z,3.42
2023-05-03T10:54:19.539Z,2.75
2023-05-03T10:56:53.679Z,2.78
2023-05-03T10:59:20.966Z,2.50
2023-05-03T11:01:50.001Z,2.50
2023-05-03T11:04:19.553Z,2.35
2023-05-03T11:06:51.589Z,2.78
2023-05-03T11:09:19.092Z,2.28
2023-05-03T11:11:46.338Z,2.40
2023-05-03T11:14:14.131Z,2.55
2023-05-03T11:16:47.629Z,2.67
2023-05-03T11:19:15.649Z,2.53
2023-05-03T11:21:43.016Z,2.45
2023-05-03T11:24:11.807Z,2.50
2023-05-03T11:26:39.052Z,2.55
2023-05-03T11:29:06.350Z,2.83
2023-05-03T11:31:33.957Z,2.40
2023-05-03T11:34:01.860Z,2.55
2023-05-03T11:36:30.540Z,2.42
2023-05-03T11:38:57.745Z,2.00
2023-05-03T11:41:27.157Z,2.42
2023-05-03T11:44:03.886Z,1.88
2023-05-03T11:46:36.560Z,2.20
2023-05-03T11:49:03.924Z,1.70
2023-05-03T11:51:31.349Z,2.20
2023-05-03T11:54:02.871Z,2.00
2023-05-03T11:56:36.343Z,1.70
2023-05-03T11:59:03.728Z,2.07
2023-05-03T12:01:31.157Z,1.95
2023-05-03T12:03:59.358Z,2.42
2023-05-03T12:06:27.869Z,1.73
2023-05-03T12:08:56.231Z,2.10
2023-05-03T12:11:27.212Z,2.20
2023-05-03T12:14:00.621Z,2.15
2023-05-03T12:16:28.404Z,2.40
2023-05-03T12:18:57.476Z,1.83
2023-05-03T12:23:57.227Z,2.10
2023-05-03T12:26:25.223Z,1.70
2023-05-03T12:28:55.944Z,1.77
2023-05-03T12:31:28.906Z,1.88
2023-05-03T12:34:19.993Z,1.45
2023-05-03T12:36:44.131Z,1.70
2023-05-03T12:39:14.418Z,1.80
2023-05-03T12:42:06.099Z,2.17
2023-05-03T12:44:34.427Z,1.70
2023-05-03T12:47:04.493Z,1.65
2023-05-03T12:49:32.360Z,1.77
2023-05-03T12:54:33.793Z,1.80
2023-05-03T12:57:07.986Z,1.67
2023-05-03T12:59:41.888Z,1.70
2023-05-03T13:04:58.057Z,1.70
2023-05-03T13:07:29.664Z,1.52
2023-05-03T13:12:30.618Z,1.83
2023-05-03T13:14:57.986Z,1.80
2023-05-03T13:17:26.758Z,1.70
2023-05-03T13:19:54.016Z,1.80
2023-05-03T13:22:21.237Z,1.90
2023-05-03T13:24:48.553Z,1.92
2023-05-03T13:27:15.866Z,1.80
2023-05-03T13:29:43.157Z,1.60
2023-05-03T13:34:36.877Z,1.50
2023-05-03T13:37:04.767Z,1.70
2023-05-03T13:39:32.113Z,1.58
2023-05-03T13:41:59.310Z,1.80
2023-05-03T13:44:26.489Z,1.40
2023-05-03T13:46:53.933Z,1.90
2023-05-03T13:49:21.207Z,1.67
2023-05-03T13:51:49.730Z,1.63
2023-05-03T13:54:16.915Z,1.70
2023-05-03T13:56:44.127Z,1.73
2023-05-03T13:59:12.442Z,1.60
2023-05-03T14:01:39.771Z,1.58
2023-05-03T14:04:07.172Z,1.50
2023-05-03T14:06:34.554Z,1.50
2023-05-03T14:09:03.746Z,1.73
2023-05-03T14:11:31.042Z,1.63
2023-05-03T14:13:58.983Z,1.70
2023-05-03T14:16:40.262Z,1.63
2023-05-03T14:19:09.978Z,1.70
2023-05-03T14:21:37.622Z,1.60
2023-05-03T14:24:06.919Z,1.27
2023-05-03T14:26:34.715Z,1.60
2023-05-03T14:29:02.004Z,1.60
2023-05-03T14:31:30.308Z,1.65
2023-05-03T14:33:57.541Z,1.60
2023-05-03T14:36:24.733Z,1.67
2023-05-03T14:38:51.926Z,1.33
2023-05-03T14:41:21.616Z,1.77
2023-05-03T14:43:48.788Z,1.67
2023-05-03T14:46:16.192Z,1.30
2023-05-03T14:48:43.395Z,1.60
2023-05-03T14:51:10.594Z,1.48
2023-05-03T14:53:37.769Z,1.60
2023-05-03T14:56:05.207Z,1.63
2023-05-03T14:58:33.877Z,1.60
2023-05-03T15:01:01.141Z,1.52
2023-05-03T15:03:28.401Z,1.58
2023-05-03T15:05:55.622Z,1.58
2023-05-03T15:08:22.968Z,1.42
2023-05-03T15:10:50.184Z,1.38
2023-05-03T15:13:17.547Z,1.50
2023-05-03T15:15:46.204Z,1.38
2023-05-03T15:18:14.291Z,1.50
2023-05-03T15:20:41.565Z,1.60
2023-05-03T15:23:08.953Z,1.60
2023-05-03T15:25:36.429Z,1.50
2023-05-03T15:28:04.583Z,1.40
2023-05-03T15:30:32.119Z,1.30
2023-05-03T15:33:00.878Z,1.40
2023-05-03T15:35:28.163Z,1.38
2023-05-03T15:37:55.487Z,1.50
2023-05-03T15:40:26.128Z,1.30
2023-05-03T15:42:54.177Z,1.30
2023-05-03T15:45:23.001Z,1.70
2023-05-03T15:47:50.267Z,1.35
2023-05-03T15:50:18.941Z,1.30
2023-05-03T15:52:46.562Z,1.30
2023-05-03T15:55:13.832Z,1.30
2023-05-03T15:57:41.201Z,1.30
2023-05-03T16:00:11.674Z,1.67
2023-05-03T16:02:38.912Z,1.50
2023-05-03T16:05:06.433Z,1.20
2023-05-03T16:07:34.966Z,1.17
2023-05-03T16:10:02.275Z,1.33
2023-05-03T16:12:29.688Z,1.60
2023-05-03T16:14:57.385Z,1.33
2023-05-03T16:17:24.655Z,1.40
2023-05-03T16:19:51.888Z,1.70
2023-05-03T16:22:19.181Z,1.20
2023-05-03T16:24:47.719Z,1.50
2023-05-03T16:27:14.955Z,1.40
2023-05-03T16:29:42.145Z,1.27
2023-05-03T16:32:10.899Z,1.35
2023-05-03T16:34:38.226Z,1.55
2023-05-03T16:37:05.403Z,1.52
2023-05-03T16:39:33.150Z,1.40
2023-05-03T16:42:02.622Z,1.35
2023-05-03T16:44:29.833Z,0.88
2023-05-03T16:46:56.996Z,1.38
2023-05-03T16:49:24.195Z,1.40
2023-05-03T16:51:51.372Z,1.50
2023-05-03T16:54:18.610Z,1.42
2023-05-03T16:56:46.261Z,1.50
2023-05-03T16:59:14.764Z,1.58
2023-05-03T17:01:42.048Z,1.40
2023-05-03T17:04:09.289Z,1.42
2023-05-03T17:06:36.705Z,1.50
2023-05-03T17:09:04.214Z,1.75
2023-05-03T17:11:31.526Z,1.52
2023-05-03T17:14:00.611Z,1.30
2023-05-03T17:16:29.159Z,1.50
2023-05-03T17:18:56.561Z,1.33
2023-05-03T17:21:24.775Z,1.50
2023-05-03T17:23:52.067Z,1.50
2023-05-03T17:26:21.257Z,1.40
2023-05-03T17:28:49.179Z,1.30
2023-05-03T17:31:16.429Z,1.60
2023-05-03T17:33:44.953Z,1.33
2023-05-03T17:36:12.330Z,1.40
2023-05-03T17:38:39.570Z,1.60
2023-05-03T17:41:07.247Z,1.50
2023-05-03T17:43:34.459Z,1.50
2023-05-03T17:46:06.641Z,1.30
2023-05-03T17:48:33.845Z,1.65
2023-05-03T17:51:02.357Z,1.48
2023-05-03T17:53:29.577Z,1.90
2023-05-03T17:55:56.814Z,1.55
2023-05-03T17:58:24.010Z,1.50
2023-05-03T18:00:51.209Z,1.42
2023-05-03T18:03:18.893Z,1.40
2023-05-03T18:05:46.318Z,1.33
2023-05-03T18:08:14.831Z,1.40
2023-05-03T18:10:43.114Z,1.42
2023-05-03T18:13:10.707Z,1.33
2023-05-03T18:15:41.321Z,1.48
2023-05-03T18:18:08.956Z,1.38
2023-05-03T18:20:36.241Z,1.50
2023-05-03T18:23:03.653Z,1.52
2023-05-03T18:25:32.205Z,1.23
2023-05-03T18:27:59.427Z,1.50
2023-05-03T18:30:28.055Z,1.40
2023-05-03T18:32:55.499Z,1.50
2023-05-03T18:35:22.746Z,1.52
2023-05-03T18:37:49.930Z,1.40
2023-05-03T18:40:17.339Z,1.33
2023-05-03T18:42:45.911Z,1.77
2023-05-03T18:45:14.936Z,1.42
2023-05-03T18:47:42.259Z,1.63
2023-05-03T18:50:09.824Z,1.50
2023-05-03T18:52:37.228Z,1.33
2023-05-03T18:55:04.721Z,1.30
2023-05-03T18:57:31.925Z,1.20
2023-05-03T19:00:07.848Z,1.50
2023-05-03T19:02:35.281Z,1.38
2023-05-03T19:05:02.557Z,1.33
2023-05-03T19:07:29.839Z,1.23
2023-05-03T19:09:57.159Z,1.33
2023-05-03T19:12:24.514Z,1.42
2023-05-03T19:14:51.888Z,1.50
2023-05-03T19:17:20.432Z,1.27
2023-05-03T19:19:47.625Z,1.40
2023-05-03T19:22:14.815Z,1.27
2023-05-03T19:24:43.736Z,1.30
2023-05-03T19:27:10.937Z,1.40
2023-05-03T19:29:38.394Z,1.23
2023-05-03T19:32:05.893Z,1.50
2023-05-03T19:34:36.322Z,1.25
2023-05-03T19:37:03.539Z,1.15
2023-05-03T19:39:32.713Z,1.10
2023-05-03T19:41:59.983Z,1.33
2023-05-03T19:44:28.596Z,1.25
2023-05-03T19:46:55.798Z,1.35
2023-05-03T19:49:23.867Z,1.25
2023-05-03T19:51:53.701Z,1.20
2023-05-03T19:54:21.023Z,1.30
2023-05-03T19:56:48.546Z,1.50
2023-05-03T19:59:15.824Z,1.05
2023-05-03T20:01:44.902Z,1.30
2023-05-03T20:04:12.331Z,1.23
2023-05-03T20:06:39.650Z,1.13
2023-05-03T20:09:09.121Z,1.30
2023-05-03T20:11:36.332Z,1.30
2023-05-03T20:14:03.532Z,1.20
2023-05-03T20:16:33.231Z,1.30
2023-05-03T20:19:01.081Z,1.35
2023-05-03T20:21:28.367Z,1.45
2023-05-03T20:23:55.715Z,1.13
2023-05-03T20:26:24.311Z,1.30
2023-05-03T20:28:51.513Z,1.25
2023-05-03T20:31:18.743Z,1.13
2023-05-03T20:33:45.957Z,1.30
2023-05-03T20:36:13.186Z,1.30
2023-05-03T20:38:40.382Z,1.48
2023-05-03T20:41:07.594Z,1.40
2023-05-03T20:43:36.100Z,1.27
2023-05-03T20:46:03.824Z,1.40
2023-05-03T20:48:31.070Z,1.30
2023-05-03T20:51:00.651Z,1.40
2023-05-03T20:53:27.859Z,1.20
2023-05-03T20:55:59.908Z,1.45
2023-05-03T20:58:27.114Z,1.35
2023-05-03T21:00:57.734Z,1.40
2023-05-03T21:03:25.751Z,1.30
2023-05-03T21:05:53.189Z,1.33
2023-05-03T21:08:20.615Z,1.10
2023-05-03T21:10:47.863Z,1.42
2023-05-03T21:13:15.233Z,1.50
2023-05-03T21:15:43.319Z,2.00
2023-05-03T21:18:11.953Z,1.50
2023-05-03T21:20:39.273Z,1.17
2023-05-03T21:23:06.533Z,1.23
2023-05-03T21:25:33.771Z,1.30
2023-05-03T21:28:01.070Z,1.40
2023-05-03T21:30:28.381Z,1.30
2023-05-03T21:32:55.624Z,1.20
2023-05-03T21:35:24.746Z,1.40
2023-05-03T21:37:51.966Z,1.42
2023-05-03T21:40:21.200Z,1.35
2023-05-03T21:42:49.603Z,1.50
2023-05-03T21:45:16.880Z,1.20
2023-05-03T21:47:44.135Z,1.65
2023-05-03T21:50:12.173Z,1.30
2023-05-03T21:52:41.012Z,1.30
2023-05-03T21:55:08.848Z,1.25
2023-05-03T21:57:36.685Z,1.73
2023-05-03T22:00:05.626Z,1.40
2023-05-03T22:02:33.167Z,1.60
2023-05-03T22:05:00.482Z,1.30
2023-05-03T22:07:27.706Z,1.67
2023-05-03T22:09:56.220Z,1.30
2023-05-03T22:12:24.715Z,1.40
2023-05-03T22:14:52.734Z,1.25
2023-05-03T22:17:20.310Z,1.48
2023-05-03T22:19:47.758Z,1.35
2023-05-03T22:22:15.112Z,1.40
2023-05-03T22:24:42.597Z,1.45
2023-05-03T22:27:11.272Z,1.50
2023-05-03T22:29:38.663Z,1.67
2023-05-03T22:32:06.491Z,1.40
2023-05-03T22:34:33.990Z,1.80
2023-05-03T22:37:01.392Z,1.30
2023-05-03T22:39:28.947Z,1.40
2023-05-03T22:41:56.180Z,1.23
2023-05-03T22:44:24.694Z,1.45
2023-05-03T22:46:51.901Z,1.40
2023-05-03T22:49:19.140Z,1.25
2023-05-03T22:51:46.560Z,1.40
2023-05-03T22:54:13.773Z,1.55
2023-05-03T22:56:40.980Z,1.40
2023-05-03T22:59:08.259Z,1.30
2023-05-03T23:01:37.395Z,1.40
2023-05-03T23:04:04.797Z,1.45
2023-05-03T23:06:32.069Z,1.60
2023-05-03T23:09:00.927Z,1.45
2023-05-03T23:11:28.147Z,1.33
2023-05-03T23:13:55.336Z,1.40
2023-05-03T23:16:22.594Z,1.40
2023-05-03T23:18:51.479Z,1.40
2023-05-03T23:21:19.382Z,1.48
2023-05-03T23:23:46.858Z,1.40
2023-05-03T23:26:14.113Z,1.30
2023-05-03T23:28:42.016Z,1.52
2023-05-03T23:31:09.819Z,1.50
2023-05-03T23:33:37.424Z,1.33
2023-05-03T23:36:06.390Z,1.50
2023-05-03T23:38:33.649Z,1.50
2023-05-03T23:41:00.944Z,1.45
2023-05-03T23:43:28.151Z,1.70
2023-05-03T23:45:55.413Z,1.50
2023-05-03T23:48:22.658Z,1.38
2023-05-03T23:50:49.846Z,1.40
2023-05-03T23:53:18.354Z,1.77
2023-05-03T23:55:45.590Z,1.50
2023-05-03T23:58:12.790Z,1.38
